Time;durP1;ratioP1;P1;durP2;ratioP2;P2;SDS_P1;SDS_P2;PMS_P1;PMS_P2;Temp;Humidity;BMP_temperature;BMP_pressure;BME280_temperature;BME280_humidity;BME280_pressure;Samples;Min_cycle;Max_cycle;Signal;HPM_P1;HPM_P2
2022/01/31 00:04:27;;;;;;;20.02;3.08;;;;;;;;;;10452513;28;20301;-77
2022/01/31 00:09:28;;;;;;;25.88;3.38;;;;;;;;;;10446746;28;20190;-74
2022/01/31 00:14:40;;;;;;;27.52;3.35;;;;;;;;;;10451596;28;20206;-76
2022/01/31 00:19:42;;;;;;;18.77;2.80;;;;;;;;;;10435941;28;20205;-76
2022/01/31 00:24:43;;;;;;;22.20;3.65;;;;;;;;;;10441528;28;20189;-75
2022/01/31 00:29:44;;;;;;;25.08;3.70;;;;;;;;;;10439547;28;20208;-77
2022/01/31 00:34:45;;;;;;;17.35;3.63;;;;;;;;;;10444649;28;20233;-77
2022/01/31 00:39:46;;;;;;;30.60;4.50;;;;;;;;;;10442875;28;20244;-76
2022/01/31 00:44:54;;;;;;;21.05;3.33;;;;;;;;;;10441966;28;20221;-77
2022/01/31 00:50:09;;;;;;;20.33;3.25;;;;;;;;;;10422611;28;20679;-76
2022/01/31 00:55:12;;;;;;;28.30;3.08;;;;;;;;;;10445023;28;20826;-77
2022/01/31 01:00:15;;;;;;;21.23;3.45;;;;;;;;;;10425404;28;20284;-77
2022/01/31 01:05:17;;;;;;;26.95;3.45;;;;;;;;;;10426080;28;20941;-76
2022/01/31 01:10:19;;;;;;;28.30;3.42;;;;;;;;;;10441780;28;20273;-77
2022/01/31 01:15:20;;;;;;;19.75;2.83;;;;;;;;;;10408569;28;20225;-77
2022/01/31 01:20:21;;;;;;;27.50;3.85;;;;;;;;;;10438801;28;20198;-76
2022/01/31 01:25:22;;;;;;;23.95;3.92;;;;;;;;;;10431499;28;20252;-76
2022/01/31 01:30:24;;;;;;;23.45;3.85;;;;;;;;;;10440115;28;20244;-77
2022/01/31 01:35:29;;;;;;;25.20;4.03;;;;;;;;;;10424985;28;20224;-77
2022/01/31 01:40:30;;;;;;;20.02;2.88;;;;;;;;;;10431095;28;20182;-78
2022/01/31 01:45:32;;;;;;;17.92;2.72;;;;;;;;;;10456739;28;20217;-78
2022/01/31 01:50:34;;;;;;;23.23;2.83;;;;;;;;;;10466382;28;20659;-78
2022/01/31 01:55:35;;;;;;;32.83;3.83;;;;;;;;;;10512001;28;20213;-77
2022/01/31 02:00:50;;;;;;;24.58;3.97;;;;;;;;;;10491749;28;20760;-78
2022/01/31 02:05:52;;;;;;;18.17;2.88;;;;;;;;;;10488898;28;20190;-78
2022/01/31 02:10:53;;;;;;;28.52;3.60;;;;;;;;;;10504393;28;20205;-78
2022/01/31 02:16:17;;;;;;;22.77;3.35;;;;;;;;;;10487749;28;20216;-78
2022/01/31 02:21:21;;;;;;;17.60;2.10;;;;;;;;;;10497544;28;20209;-77
2022/01/31 02:26:23;;;;;;;20.13;3.63;;;;;;;;;;10494059;28;21063;-78
2022/01/31 02:31:27;;;;;;;20.92;2.88;;;;;;;;;;10484423;28;20994;-78
2022/01/31 02:36:28;;;;;;;27.27;3.78;;;;;;;;;;10464013;28;21051;-78
2022/01/31 02:41:30;;;;;;;18.73;2.75;;;;;;;;;;10471024;28;20201;-78
2022/01/31 02:46:32;;;;;;;20.08;3.10;;;;;;;;;;10483599;28;20225;-76
2022/01/31 02:51:34;;;;;;;13.75;2.50;;;;;;;;;;10483525;28;20194;-76
2022/01/31 02:56:37;;;;;;;35.22;3.83;;;;;;;;;;10470462;28;20291;-76
2022/01/31 03:01:38;;;;;;;17.75;3.17;;;;;;;;;;10483349;28;20218;-78
2022/01/31 03:06:42;;;;;;;22.85;3.10;;;;;;;;;;10461100;28;20315;-76
2022/01/31 03:11:44;;;;;;;24.10;3.50;;;;;;;;;;10470132;28;20693;-75
2022/01/31 03:16:47;;;;;;;28.23;3.65;;;;;;;;;;10476214;28;20286;-78
2022/01/31 03:21:55;;;;;;;13.77;2.95;;;;;;;;;;10464477;28;20190;-78
2022/01/31 03:26:56;;;;;;;21.33;3.10;;;;;;;;;;10468676;28;20284;-78
2022/01/31 03:31:57;;;;;;;21.02;3.42;;;;;;;;;;10471778;28;20214;-76
2022/01/31 03:36:59;;;;;;;19.70;2.92;;;;;;;;;;10486599;28;20209;-78
2022/01/31 03:42:02;;;;;;;31.73;2.78;;;;;;;;;;10464500;28;20220;-78
2022/01/31 03:47:03;;;;;;;22.92;3.47;;;;;;;;;;10463562;28;20206;-77
2022/01/31 03:52:05;;;;;;;24.45;4.03;;;;;;;;;;10468997;28;20181;-78
2022/01/31 03:57:15;;;;;;;21.38;3.45;;;;;;;;;;10472218;28;20217;-78
2022/01/31 04:02:29;;;;;;;25.10;3.40;;;;;;;;;;10481615;28;20316;-77
2022/01/31 04:07:30;;;;;;;19.48;3.50;;;;;;;;;;10496712;28;20213;-78
2022/01/31 04:12:31;;;;;;;23.50;3.45;;;;;;;;;;10487075;28;20209;-78
2022/01/31 04:17:33;;;;;;;15.75;3.80;;;;;;;;;;10486129;28;20217;-76
2022/01/31 04:22:38;;;;;;;21.40;3.58;;;;;;;;;;10483913;28;20198;-76
2022/01/31 04:27:45;;;;;;;18.10;3.05;;;;;;;;;;10487952;28;20186;-75
2022/01/31 04:32:46;;;;;;;23.83;3.65;;;;;;;;;;10482336;28;20325;-75
2022/01/31 04:37:47;;;;;;;24.02;4.20;;;;;;;;;;10488216;28;20212;-78
2022/01/31 04:42:48;;;;;;;24.15;3.75;;;;;;;;;;10474005;28;20271;-76
2022/01/31 04:47:49;;;;;;;17.88;2.70;;;;;;;;;;10442907;28;20209;-76
2022/01/31 04:52:50;;;;;;;22.05;3.85;;;;;;;;;;10442629;28;20198;-78
2022/01/31 04:57:51;;;;;;;25.30;3.40;;;;;;;;;;10438966;28;20207;-76
2022/01/31 05:02:53;;;;;;;23.77;3.95;;;;;;;;;;10433464;28;20210;-76
2022/01/31 05:07:55;;;;;;;22.42;4.30;;;;;;;;;;10438753;28;20345;-76
2022/01/31 05:12:56;;;;;;;18.23;3.72;;;;;;;;;;10434213;28;20252;-76
2022/01/31 05:17:57;;;;;;;19.73;3.40;;;;;;;;;;10427331;28;20337;-77
2022/01/31 05:22:58;;;;;;;23.95;4.05;;;;;;;;;;10433270;28;20251;-76
2022/01/31 05:27:59;;;;;;;28.08;4.28;;;;;;;;;;10435179;28;20851;-76
2022/01/31 05:33:00;;;;;;;20.27;4.32;;;;;;;;;;10419585;28;20218;-77
2022/01/31 05:38:01;;;;;;;16.75;3.08;;;;;;;;;;10439793;28;20202;-77
2022/01/31 05:43:03;;;;;;;31.15;4.18;;;;;;;;;;10440630;28;20218;-76
2022/01/31 05:48:04;;;;;;;16.63;4.15;;;;;;;;;;10435421;28;20252;-76
2022/01/31 05:53:05;;;;;;;20.30;3.13;;;;;;;;;;10442034;28;20218;-76
2022/01/31 05:58:07;;;;;;;19.38;3.95;;;;;;;;;;10436748;28;20199;-76
2022/01/31 06:03:08;;;;;;;29.15;4.65;;;;;;;;;;10435761;28;20280;-77
2022/01/31 06:08:09;;;;;;;30.10;3.65;;;;;;;;;;10443885;28;20186;-78
2022/01/31 06:13:10;;;;;;;21.60;4.22;;;;;;;;;;10446841;28;20216;-77
2022/01/31 06:18:11;;;;;;;16.52;3.80;;;;;;;;;;10431582;28;20190;-75
2022/01/31 06:23:13;;;;;;;22.00;4.63;;;;;;;;;;10415372;28;20198;-76
2022/01/31 06:28:14;;;;;;;20.73;3.58;;;;;;;;;;10431212;28;20198;-77
2022/01/31 06:33:16;;;;;;;20.80;4.15;;;;;;;;;;10410672;28;20772;-76
2022/01/31 06:38:17;;;;;;;25.45;4.32;;;;;;;;;;10414375;28;20195;-76
2022/01/31 06:43:18;;;;;;;22.30;3.60;;;;;;;;;;10428931;28;20206;-78
2022/01/31 06:48:19;;;;;;;19.35;3.97;;;;;;;;;;10421045;28;20207;-77
2022/01/31 06:53:26;;;;;;;15.57;3.50;;;;;;;;;;10425817;28;20210;-75
2022/01/31 06:58:27;;;;;;;17.70;3.80;;;;;;;;;;10434723;28;20197;-76
2022/01/31 07:03:28;;;;;;;18.65;4.03;;;;;;;;;;10439217;28;20225;-77
2022/01/31 07:08:30;;;;;;;21.55;4.43;;;;;;;;;;10455809;28;20233;-78
2022/01/31 07:18:35;;;;;;;16.38;3.80;;;;;;;;;;10438244;28;20202;-78
2022/01/31 07:24:05;;;;;;;20.67;4.28;;;;;;;;;;10438175;28;20194;-78
2022/01/31 07:29:06;;;;;;;19.58;4.65;;;;;;;;;;10449988;28;20209;-79
2022/01/31 07:34:07;;;;;;;24.48;5.35;;;;;;;;;;10450220;28;20217;-79
2022/01/31 07:39:09;;;;;;;16.67;5.03;;;;;;;;;;10457149;28;20201;-79
2022/01/31 07:44:10;;;;;;;14.43;4.20;;;;;;;;;;10449556;28;20250;-81
2022/01/31 07:49:11;;;;;;;12.77;4.82;;;;;;;;;;10449108;28;20236;-82
2022/01/31 07:54:12;;;;;;;11.15;4.47;;;;;;;;;;10443806;28;20245;-85
2022/01/31 07:59:14;;;;;;;15.05;4.78;;;;;;;;;;10444092;28;20197;-83
2022/01/31 08:04:15;;;;;;;23.80;5.63;;;;;;;;;;10442653;28;20220;-83
2022/01/31 08:09:16;;;;;;;17.80;5.35;;;;;;;;;;10449095;28;20206;-83
2022/01/31 08:14:18;;;;;;;19.02;5.43;;;;;;;;;;10428216;28;20293;-83
2022/01/31 08:19:20;;;;;;;16.13;5.85;;;;;;;;;;10439665;28;20253;-81
2022/01/31 08:24:21;;;;;;;13.65;5.35;;;;;;;;;;10448536;28;20213;-85
2022/01/31 08:29:29;;;;;;;12.00;4.93;;;;;;;;;;10452858;28;21175;-83
2022/01/31 08:35:48;;;;;;;10.63;5.78;;;;;;;;;;10447514;28;20218;-85
2022/01/31 08:39:54;;;;;;;17.98;6.40;;;;;;;;;;10443907;28;20194;-85
2022/01/31 08:44:55;;;;;;;17.95;8.07;;;;;;;;;;10450585;28;20245;-84
2022/01/31 08:49:56;;;;;;;17.05;8.32;;;;;;;;;;10453928;28;20194;-82
2022/01/31 08:54:57;;;;;;;17.77;7.93;;;;;;;;;;10445636;28;20210;-85
2022/01/31 09:00:01;;;;;;;13.93;7.22;;;;;;;;;;10438237;28;20232;-84
2022/01/31 09:05:02;;;;;;;14.80;6.45;;;;;;;;;;10462394;28;20209;-83
2022/01/31 09:10:03;;;;;;;8.52;5.90;;;;;;;;;;10498240;28;20189;-83
2022/01/31 09:15:06;;;;;;;14.60;6.00;;;;;;;;;;10466347;28;20944;-83
2022/01/31 09:20:07;;;;;;;13.50;6.75;;;;;;;;;;10491702;28;20190;-82
2022/01/31 09:25:09;;;;;;;12.70;5.72;;;;;;;;;;10487451;28;20208;-82
2022/01/31 09:30:11;;;;;;;10.10;5.93;;;;;;;;;;10469311;28;20193;-82
2022/01/31 09:35:12;;;;;;;11.52;6.30;;;;;;;;;;10484261;28;20214;-81
2022/01/31 09:40:18;;;;;;;8.52;6.53;;;;;;;;;;10478418;28;20223;-81
2022/01/31 09:45:36;;;;;;;14.55;7.85;;;;;;;;;;10486583;28;20328;-80
2022/01/31 09:50:37;;;;;;;12.23;7.28;;;;;;;;;;10490260;28;20277;-80
2022/01/31 09:55:38;;;;;;;10.25;7.28;;;;;;;;;;10487975;28;20213;-79
2022/01/31 10:00:39;;;;;;;13.10;7.50;;;;;;;;;;10491615;28;20210;-83
2022/01/31 10:05:40;;;;;;;12.23;7.40;;;;;;;;;;10490167;28;20193;-81
2022/01/31 10:10:44;;;;;;;9.90;6.32;;;;;;;;;;10473635;28;20845;-80
2022/01/31 10:16:47;;;;;;;12.60;7.35;;;;;;;;;;10488227;28;20213;-83
2022/01/31 10:21:22;;;;;;;8.95;7.22;;;;;;;;;;10486496;28;20242;-82
2022/01/31 10:26:31;;;;;;;8.18;6.15;;;;;;;;;;10486102;28;20197;-83
2022/01/31 10:31:32;;;;;;;4.75;4.38;;;;;;;;;;10490584;28;20297;-83
2022/01/31 10:36:35;;;;;;;5.30;3.72;;;;;;;;;;10497246;28;20208;-82
2022/01/31 10:52:55;;;;;;;3.60;3.42;;;;;;;;;;10450392;28;20220;-81
2022/01/31 10:58:10;;;;;;;3.67;3.25;;;;;;;;;;10492314;28;20205;-83
2022/01/31 11:03:31;;;;;;;3.40;3.20;;;;;;;;;;10474740;28;20209;-81
2022/01/31 11:08:32;;;;;;;2.83;2.75;;;;;;;;;;10486626;28;20193;-81
2022/01/31 11:13:35;;;;;;;4.53;3.50;;;;;;;;;;10483122;28;20213;-80
2022/01/31 11:18:36;;;;;;;3.63;3.50;;;;;;;;;;10490689;28;20205;-79
2022/01/31 11:23:39;;;;;;;3.83;3.17;;;;;;;;;;10501905;28;20328;-79
2022/01/31 11:28:41;;;;;;;3.78;3.58;;;;;;;;;;10493638;28;20209;-80
2022/01/31 11:33:43;;;;;;;3.30;2.88;;;;;;;;;;10505966;28;20210;-80
2022/01/31 11:38:45;;;;;;;3.10;3.00;;;;;;;;;;10484599;28;20213;-81
2022/01/31 11:43:52;;;;;;;3.95;3.65;;;;;;;;;;10501386;28;20228;-81
2022/01/31 11:48:53;;;;;;;3.38;3.28;;;;;;;;;;10503318;28;20197;-82
2022/01/31 11:54:06;;;;;;;3.70;3.50;;;;;;;;;;10488033;28;20242;-81
2022/01/31 11:59:12;;;;;;;3.78;3.58;;;;;;;;;;10503121;28;20190;-81
2022/01/31 12:04:13;;;;;;;4.03;3.83;;;;;;;;;;10506089;28;20222;-82
2022/01/31 12:09:17;;;;;;;3.70;3.42;;;;;;;;;;10505066;28;20230;-80
2022/01/31 12:14:25;;;;;;;5.05;4.53;;;;;;;;;;10474344;28;20245;-81
2022/01/31 12:19:47;;;;;;;6.55;5.78;;;;;;;;;;10505316;28;20193;-81
2022/01/31 12:24:48;;;;;;;4.43;4.05;;;;;;;;;;10499648;28;20197;-82
2022/01/31 12:29:51;;;;;;;5.20;4.68;;;;;;;;;;10499685;28;20190;-81
2022/01/31 12:34:56;;;;;;;5.07;4.68;;;;;;;;;;10485789;28;20229;-81
2022/01/31 12:40:01;;;;;;;4.43;4.03;;;;;;;;;;10501368;28;20212;-81
2022/01/31 12:45:02;;;;;;;4.30;4.10;;;;;;;;;;10460269;28;20264;-81
2022/01/31 12:50:22;;;;;;;5.03;4.72;;;;;;;;;;10456478;28;20198;-80
2022/01/31 12:55:27;;;;;;;6.70;6.13;;;;;;;;;;10457409;28;20276;-81
2022/01/31 13:00:39;;;;;;;6.70;6.03;;;;;;;;;;10456412;28;20222;-81
2022/01/31 13:05:40;;;;;;;6.00;5.40;;;;;;;;;;10456662;28;20286;-81
2022/01/31 13:10:41;;;;;;;7.10;6.22;;;;;;;;;;10457396;28;20194;-80
2022/01/31 13:15:42;;;;;;;6.85;6.22;;;;;;;;;;10446567;28;20237;-81
2022/01/31 13:20:47;;;;;;;7.47;6.88;;;;;;;;;;10460802;28;20187;-82
2022/01/31 13:25:56;;;;;;;9.48;7.47;;;;;;;;;;10457598;28;20221;-83
2022/01/31 13:31:08;;;;;;;9.55;7.07;;;;;;;;;;10438374;28;20218;-79
2022/01/31 13:36:09;;;;;;;7.57;6.72;;;;;;;;;;10458962;28;20211;-80
2022/01/31 13:41:11;;;;;;;7.13;6.53;;;;;;;;;;10437476;28;20271;-81
2022/01/31 13:57:35;;;;;;;7.82;7.13;;;;;;;;;;10480509;28;20954;-71
2022/01/31 14:02:39;;;;;;;8.18;7.45;;;;;;;;;;10446281;28;20248;-71
2022/01/31 14:07:40;;;;;;;7.22;6.53;;;;;;;;;;10422018;28;20215;-70
2022/01/31 14:12:41;;;;;;;7.88;6.80;;;;;;;;;;10419406;28;20186;-71
2022/01/31 14:17:42;;;;;;;8.43;7.50;;;;;;;;;;10447218;28;20371;-69
2022/01/31 14:22:43;;;;;;;7.32;6.60;;;;;;;;;;10447724;28;21164;-71
2022/01/31 14:27:54;;;;;;;7.60;6.82;;;;;;;;;;10446754;28;20210;-70
2022/01/31 14:33:08;;;;;;;9.77;7.95;;;;;;;;;;10445469;28;20272;-71
2022/01/31 14:38:18;;;;;;;10.82;8.48;;;;;;;;;;10448750;28;20206;-71
2022/01/31 14:48:56;;;;;;;8.70;7.38;;;;;;;;;;10465635;28;20590;-71
2022/01/31 14:53:58;;;;;;;12.57;9.57;;;;;;;;;;10445949;28;20239;-70
2022/01/31 14:59:00;;;;;;;12.68;9.32;;;;;;;;;;10438945;28;20207;-71
2022/01/31 15:04:01;;;;;;;8.95;7.85;;;;;;;;;;10450183;28;20217;-71
2022/01/31 15:09:02;;;;;;;9.82;7.95;;;;;;;;;;10463125;28;20593;-71
2022/01/31 15:14:04;;;;;;;10.52;8.00;;;;;;;;;;10458562;28;20194;-70
2022/01/31 15:19:05;;;;;;;11.27;8.93;;;;;;;;;;10461287;28;20198;-71
2022/01/31 15:24:06;;;;;;;10.98;8.98;;;;;;;;;;10456024;28;20289;-71
2022/01/31 15:29:07;;;;;;;13.32;9.48;;;;;;;;;;10458959;28;20209;-71
2022/01/31 15:34:08;;;;;;;12.32;8.70;;;;;;;;;;10449990;28;20572;-71
2022/01/31 15:39:11;;;;;;;12.75;9.85;;;;;;;;;;10458576;28;20198;-71
2022/01/31 15:44:15;;;;;;;9.82;8.40;;;;;;;;;;10459811;28;20545;-71
2022/01/31 15:49:17;;;;;;;10.93;8.63;;;;;;;;;;10456201;28;20222;-71
2022/01/31 15:54:18;;;;;;;12.23;8.32;;;;;;;;;;10439820;28;20273;-71
2022/01/31 15:59:19;;;;;;;9.88;8.43;;;;;;;;;;10450306;28;20202;-71
2022/01/31 16:04:20;;;;;;;11.35;9.13;;;;;;;;;;10444802;28;20219;-71
2022/01/31 16:09:21;;;;;;;16.40;9.02;;;;;;;;;;10454168;28;20253;-73
2022/01/31 16:14:22;;;;;;;10.70;8.70;;;;;;;;;;10448155;28;20194;-71
2022/01/31 16:19:23;;;;;;;13.73;8.13;;;;;;;;;;10432030;28;20335;-71
2022/01/31 16:24:24;;;;;;;14.27;9.50;;;;;;;;;;10427934;28;20201;-71
2022/01/31 16:29:27;;;;;;;13.20;8.73;;;;;;;;;;10452459;28;20214;-73
2022/01/31 16:34:28;;;;;;;10.30;7.70;;;;;;;;;;10452405;28;20446;-70
2022/01/31 16:39:29;;;;;;;10.35;8.05;;;;;;;;;;10452706;28;20708;-71
2022/01/31 16:44:33;;;;;;;15.75;10.05;;;;;;;;;;10450867;28;20209;-71
2022/01/31 16:49:34;;;;;;;14.18;9.68;;;;;;;;;;10451320;28;20231;-71
2022/01/31 16:54:35;;;;;;;11.45;8.25;;;;;;;;;;10451053;28;20205;-72
2022/01/31 16:59:36;;;;;;;12.80;9.38;;;;;;;;;;10442482;28;20202;-71
2022/01/31 17:04:38;;;;;;;11.50;7.70;;;;;;;;;;10450464;28;20211;-72
2022/01/31 17:09:40;;;;;;;10.68;7.47;;;;;;;;;;10448055;28;20248;-71
2022/01/31 17:14:41;;;;;;;14.48;9.88;;;;;;;;;;10435314;28;20190;-71
2022/01/31 17:19:42;;;;;;;10.32;7.60;;;;;;;;;;10443915;28;20225;-71
2022/01/31 17:24:43;;;;;;;11.63;8.38;;;;;;;;;;10452821;28;20324;-72
2022/01/31 17:29:44;;;;;;;12.18;8.85;;;;;;;;;;10452199;28;20236;-72
2022/01/31 17:34:47;;;;;;;18.98;9.85;;;;;;;;;;10457045;28;20242;-70
2022/01/31 17:39:48;;;;;;;14.30;9.30;;;;;;;;;;10469291;28;20290;-71
2022/01/31 17:44:57;;;;;;;14.60;9.93;;;;;;;;;;10424020;28;20198;-72
2022/01/31 17:50:01;;;;;;;14.75;9.73;;;;;;;;;;10415205;28;20646;-72
2022/01/31 17:55:03;;;;;;;18.73;10.68;;;;;;;;;;10415182;28;20697;-72
2022/01/31 18:00:05;;;;;;;18.17;10.18;;;;;;;;;;10415998;28;20279;-71
2022/01/31 18:05:07;;;;;;;13.02;9.35;;;;;;;;;;10397551;28;20211;-72
2022/01/31 18:10:08;;;;;;;16.75;9.40;;;;;;;;;;10430504;28;20719;-72
2022/01/31 18:15:10;;;;;;;16.45;10.35;;;;;;;;;;10406929;28;20187;-72
2022/01/31 18:20:12;;;;;;;18.00;11.18;;;;;;;;;;10410473;28;20206;-72
2022/01/31 18:25:13;;;;;;;22.42;12.27;;;;;;;;;;10413129;28;20199;-72
2022/01/31 18:30:15;;;;;;;24.88;10.88;;;;;;;;;;10410840;28;20211;-71
2022/01/31 18:35:18;;;;;;;21.23;11.18;;;;;;;;;;10413603;28;20191;-75
2022/01/31 18:40:19;;;;;;;23.80;12.45;;;;;;;;;;10400310;28;20197;-72
2022/01/31 18:45:21;;;;;;;26.48;11.85;;;;;;;;;;10415531;28;20199;-73
2022/01/31 18:50:27;;;;;;;32.45;13.68;;;;;;;;;;10416692;28;20687;-72
2022/01/31 18:55:28;;;;;;;28.50;13.13;;;;;;;;;;10408557;28;20305;-71
2022/01/31 19:00:29;;;;;;;24.05;12.80;;;;;;;;;;10408157;28;20215;-73
2022/01/31 19:05:30;;;;;;;36.90;14.00;;;;;;;;;;10416297;28;20196;-73
2022/01/31 19:10:34;;;;;;;28.75;12.48;;;;;;;;;;10424232;28;20218;-72
2022/01/31 19:15:44;;;;;;;38.05;16.20;;;;;;;;;;10431948;28;20549;-72
2022/01/31 19:20:46;;;;;;;32.80;13.68;;;;;;;;;;10432097;28;20196;-73
2022/01/31 19:25:47;;;;;;;30.80;13.82;;;;;;;;;;10419455;28;21233;-75
2022/01/31 19:30:49;;;;;;;32.63;13.23;;;;;;;;;;10415543;28;20606;-75
2022/01/31 19:35:51;;;;;;;28.80;14.43;;;;;;;;;;10424499;28;21006;-75
2022/01/31 19:46:14;;;;;;;34.35;13.70;;;;;;;;;;10399675;28;20191;-73
2022/01/31 19:51:19;;;;;;;31.65;14.05;;;;;;;;;;10418138;28;20230;-72
2022/01/31 19:56:20;;;;;;;35.13;14.63;;;;;;;;;;10406974;28;20199;-73
2022/01/31 20:01:22;;;;;;;33.00;14.10;;;;;;;;;;10416882;28;20211;-74
2022/01/31 20:06:24;;;;;;;29.52;15.13;;;;;;;;;;10419871;28;20195;-73
2022/01/31 20:11:27;;;;;;;31.83;14.45;;;;;;;;;;10417535;28;20222;-74
2022/01/31 20:16:29;;;;;;;35.75;16.25;;;;;;;;;;10414979;28;20187;-71
2022/01/31 20:21:31;;;;;;;40.70;15.48;;;;;;;;;;10414812;28;20303;-72
2022/01/31 20:26:33;;;;;;;32.17;14.02;;;;;;;;;;10428536;28;20290;-72
2022/01/31 20:31:38;;;;;;;32.75;14.82;;;;;;;;;;10422020;28;20261;-71
2022/01/31 20:36:42;;;;;;;35.08;13.27;;;;;;;;;;10414892;28;20212;-72
2022/01/31 20:41:46;;;;;;;35.08;14.60;;;;;;;;;;10418261;28;20215;-71
2022/01/31 20:46:48;;;;;;;33.55;14.95;;;;;;;;;;10413609;28;20703;-71
2022/01/31 20:51:49;;;;;;;33.30;13.70;;;;;;;;;;10416468;28;20195;-71
2022/01/31 20:56:50;;;;;;;34.63;14.20;;;;;;;;;;10402672;28;20189;-71
2022/01/31 21:01:52;;;;;;;40.35;15.93;;;;;;;;;;10417312;28;20301;-71
2022/01/31 21:06:53;;;;;;;43.47;15.85;;;;;;;;;;10392400;28;21260;-72
2022/01/31 21:11:54;;;;;;;41.25;16.00;;;;;;;;;;10417367;28;20290;-71
2022/01/31 21:16:55;;;;;;;43.60;16.60;;;;;;;;;;10410765;28;20191;-71
2022/01/31 21:21:56;;;;;;;38.65;17.23;;;;;;;;;;10414289;28;20197;-73
2022/01/31 21:26:58;;;;;;;42.22;16.10;;;;;;;;;;10414928;28;20190;-71
2022/01/31 21:31:59;;;;;;;34.45;15.50;;;;;;;;;;10386719;28;20657;-71
2022/01/31 21:37:00;;;;;;;42.63;16.45;;;;;;;;;;10401408;28;20686;-72
2022/01/31 21:42:01;;;;;;;37.63;16.30;;;;;;;;;;10412847;28;20191;-72
2022/01/31 21:47:02;;;;;;;35.40;14.82;;;;;;;;;;10407137;28;20321;-72
2022/01/31 21:52:04;;;;;;;37.38;14.70;;;;;;;;;;10410322;28;20203;-71
2022/01/31 21:57:09;;;;;;;38.67;14.05;;;;;;;;;;10411236;28;20282;-72
2022/01/31 22:02:11;;;;;;;39.35;14.02;;;;;;;;;;10402255;28;20225;-72
2022/01/31 22:07:12;;;;;;;30.20;14.55;;;;;;;;;;10415757;28;20302;-72
2022/01/31 22:12:13;;;;;;;35.33;13.90;;;;;;;;;;10424103;28;20187;-72
2022/01/31 22:17:14;;;;;;;33.65;14.68;;;;;;;;;;10426306;28;20198;-72
2022/01/31 22:22:15;;;;;;;35.42;16.33;;;;;;;;;;10429989;28;20244;-71
2022/01/31 22:27:17;;;;;;;32.75;15.50;;;;;;;;;;10424324;28;20798;-70
2022/01/31 22:32:18;;;;;;;38.78;16.52;;;;;;;;;;10419659;28;20214;-72
2022/01/31 22:37:19;;;;;;;31.60;15.35;;;;;;;;;;10425137;28;20516;-72
2022/01/31 22:42:20;;;;;;;37.88;15.93;;;;;;;;;;10424197;28;20198;-72
2022/01/31 22:47:21;;;;;;;39.30;15.10;;;;;;;;;;10424403;28;20573;-71
2022/01/31 22:52:23;;;;;;;34.33;14.25;;;;;;;;;;10423636;28;20689;-72
2022/01/31 22:57:24;;;;;;;32.90;15.32;;;;;;;;;;10405312;28;20203;-72
2022/01/31 23:02:25;;;;;;;31.52;14.13;;;;;;;;;;10421424;28;20214;-72
2022/01/31 23:07:26;;;;;;;35.28;14.23;;;;;;;;;;10422381;28;20225;-72
2022/01/31 23:12:32;;;;;;;40.33;13.93;;;;;;;;;;10405938;28;20278;-71
2022/01/31 23:18:12;;;;;;;40.08;14.15;;;;;;;;;;10420355;28;20256;-71
2022/01/31 23:44:25;;;;;;;35.95;15.25;;;;;;;;;;10400282;28;20222;-70
2022/01/31 23:54:59;;;;;;;38.75;15.77;;;;;;;;;;10418419;28;20549;-71
